sensor_id;sensor_type;location;lat;lon;timestamp;temperature;humidity
1351;DHT22;669;50.206;9.998;2023-04-25T00:00:24;7.90;97.20
1351;DHT22;669;50.206;9.998;2023-04-25T00:02:52;7.90;97.10
1351;DHT22;669;50.206;9.998;2023-04-25T00:05:22;8.00;97.20
1351;DHT22;669;50.206;9.998;2023-04-25T00:07:51;8.00;97.20
1351;DHT22;669;50.206;9.998;2023-04-25T00:10:19;8.00;97.40
1351;DHT22;669;50.206;9.998;2023-04-25T00:12:47;8.10;97.60
1351;DHT22;669;50.206;9.998;2023-04-25T00:15:17;8.10;97.60
1351;DHT22;669;50.206;9.998;2023-04-25T00:17:45;8.10;97.10
1351;DHT22;669;50.206;9.998;2023-04-25T00:20:13;8.10;97.40
1351;DHT22;669;50.206;9.998;2023-04-25T00:22:41;8.10;97.10
1351;DHT22;669;50.206;9.998;2023-04-25T00:25:09;8.10;97.10
1351;DHT22;669;50.206;9.998;2023-04-25T00:27:37;8.10;97.20
1351;DHT22;669;50.206;9.998;2023-04-25T00:30:06;8.10;97.80
1351;DHT22;669;50.206;9.998;2023-04-25T00:32:36;8.10;97.10
1351;DHT22;669;50.206;9.998;2023-04-25T00:35:04;8.10;96.90
1351;DHT22;669;50.206;9.998;2023-04-25T00:37:32;8.20;97.40
1351;DHT22;669;50.206;9.998;2023-04-25T00:40:00;8.20;97.40
1351;DHT22;669;50.206;9.998;2023-04-25T00:42:29;8.20;97.20
1351;DHT22;669;50.206;9.998;2023-04-25T00:44:58;8.30;97.40
1351;DHT22;669;50.206;9.998;2023-04-25T00:47:28;8.30;97.40
1351;DHT22;669;50.206;9.998;2023-04-25T00:49:57;8.30;97.60
1351;DHT22;669;50.206;9.998;2023-04-25T00:52:25;8.30;97.70
1351;DHT22;669;50.206;9.998;2023-04-25T00:54:53;8.30;97.80
1351;DHT22;669;50.206;9.998;2023-04-25T00:57:21;8.30;97.80
1351;DHT22;669;50.206;9.998;2023-04-25T00:59:51;8.20;98.20
1351;DHT22;669;50.206;9.998;2023-04-25T01:02:19;8.10;98.20
1351;DHT22;669;50.206;9.998;2023-04-25T01:04:48;8.10;98.60
1351;DHT22;669;50.206;9.998;2023-04-25T01:07:17;8.00;98.70
1351;DHT22;669;50.206;9.998;2023-04-25T01:09:46;8.00;98.90
1351;DHT22;669;50.206;9.998;2023-04-25T01:12:14;8.00;98.90
1351;DHT22;669;50.206;9.998;2023-04-25T01:14:42;8.00;99.30
1351;DHT22;669;50.206;9.998;2023-04-25T01:17:10;8.00;99.30
1351;DHT22;669;50.206;9.998;2023-04-25T01:19:38;8.10;99.00
1351;DHT22;669;50.206;9.998;2023-04-25T01:22:08;8.00;99.10
1351;DHT22;669;50.206;9.998;2023-04-25T01:24:37;8.00;99.00
1351;DHT22;669;50.206;9.998;2023-04-25T01:27:05;8.00;99.20
1351;DHT22;669;50.206;9.998;2023-04-25T01:29:35;8.00;99.40
1351;DHT22;669;50.206;9.998;2023-04-25T01:32:03;8.00;99.50
1351;DHT22;669;50.206;9.998;2023-04-25T01:34:32;8.00;99.80
1351;DHT22;669;50.206;9.998;2023-04-25T01:37:00;8.10;99.80
1351;DHT22;669;50.206;9.998;2023-04-25T01:39:30;8.00;99.70
1351;DHT22;669;50.206;9.998;2023-04-25T01:41:59;8.00;99.70
1351;DHT22;669;50.206;9.998;2023-04-25T01:44:28;7.90;99.70
1351;DHT22;669;50.206;9.998;2023-04-25T01:46:56;7.90;99.90
1351;DHT22;669;50.206;9.998;2023-04-25T01:49:23;7.90;99.80
1351;DHT22;669;50.206;9.998;2023-04-25T01:51:51;7.90;99.90
1351;DHT22;669;50.206;9.998;2023-04-25T01:54:20;7.90;99.90
1351;DHT22;669;50.206;9.998;2023-04-25T01:56:51;7.90;99.90
1351;DHT22;669;50.206;9.998;2023-04-25T01:59:19;7.90;99.90
1351;DHT22;669;50.206;9.998;2023-04-25T02:01:48;7.80;99.90
1351;DHT22;669;50.206;9.998;2023-04-25T02:04:16;7.80;99.90
1351;DHT22;669;50.206;9.998;2023-04-25T02:06:44;7.80;99.90
1351;DHT22;669;50.206;9.998;2023-04-25T02:09:12;7.80;99.90
1351;DHT22;669;50.206;9.998;2023-04-25T02:11:40;7.80;99.90
1351;DHT22;669;50.206;9.998;2023-04-25T02:14:09;7.80;99.90
1351;DHT22;669;50.206;9.998;2023-04-25T02:16:37;7.80;99.80
1351;DHT22;669;50.206;9.998;2023-04-25T02:19:06;7.70;99.30
1351;DHT22;669;50.206;9.998;2023-04-25T02:21:34;7.70;99.30
1351;DHT22;669;50.206;9.998;2023-04-25T02:24:03;7.70;99.10
1351;DHT22;669;50.206;9.998;2023-04-25T02:26:32;7.70;99.10
1351;DHT22;669;50.206;9.998;2023-04-25T02:28:59;7.70;99.10
1351;DHT22;669;50.206;9.998;2023-04-25T02:31:29;7.70;99.20
1351;DHT22;669;50.206;9.998;2023-04-25T02:33:57;7.70;99.20
1351;DHT22;669;50.206;9.998;2023-04-25T02:36:25;7.70;98.90
1351;DHT22;669;50.206;9.998;2023-04-25T02:38:53;7.70;98.80
1351;DHT22;669;50.206;9.998;2023-04-25T02:41:21;7.70;98.90
1351;DHT22;669;50.206;9.998;2023-04-25T02:43:48;7.70;98.70
1351;DHT22;669;50.206;9.998;2023-04-25T02:46:17;7.70;98.80
1351;DHT22;669;50.206;9.998;2023-04-25T02:49:05;7.70;98.70
1351;DHT22;669;50.206;9.998;2023-04-25T02:51:33;7.70;98.70
1351;DHT22;669;50.206;9.998;2023-04-25T02:54:01;7.60;98.70
1351;DHT22;669;50.206;9.998;2023-04-25T02:56:29;7.60;98.20
1351;DHT22;669;50.206;9.998;2023-04-25T02:58:57;7.60;98.70
1351;DHT22;669;50.206;9.998;2023-04-25T03:01:25;7.60;98.70
1351;DHT22;669;50.206;9.998;2023-04-25T03:03:53;7.60;98.30
1351;DHT22;669;50.206;9.998;2023-04-25T03:06:23;7.60;98.70
1351;DHT22;669;50.206;9.998;2023-04-25T03:08:50;7.50;98.60
1351;DHT22;669;50.206;9.998;2023-04-25T03:11:18;7.50;98.60
1351;DHT22;669;50.206;9.998;2023-04-25T03:13:47;7.50;98.60
1351;DHT22;669;50.206;9.998;2023-04-25T03:16:15;7.50;98.60
1351;DHT22;669;50.206;9.998;2023-04-25T03:18:43;7.50;98.60
1351;DHT22;669;50.206;9.998;2023-04-25T03:21:11;7.50;98.60
1351;DHT22;669;50.206;9.998;2023-04-25T03:23:40;7.50;98.00
1351;DHT22;669;50.206;9.998;2023-04-25T03:26:08;7.50;98.60
1351;DHT22;669;50.206;9.998;2023-04-25T03:28:36;7.50;98.60
1351;DHT22;669;50.206;9.998;2023-04-25T03:31:04;7.50;98.50
1351;DHT22;669;50.206;9.998;2023-04-25T03:33:32;7.50;98.60
1351;DHT22;669;50.206;9.998;2023-04-25T03:36:00;7.40;98.60
1351;DHT22;669;50.206;9.998;2023-04-25T03:38:28;7.40;98.70
1351;DHT22;669;50.206;9.998;2023-04-25T03:40:57;7.40;98.90
1351;DHT22;669;50.206;9.998;2023-04-25T03:43:25;7.40;98.20
1351;DHT22;669;50.206;9.998;2023-04-25T03:45:52;7.40;98.50
1351;DHT22;669;50.206;9.998;2023-04-25T03:48:21;7.30;98.40
1351;DHT22;669;50.206;9.998;2023-04-25T03:50:51;7.30;98.40
1351;DHT22;669;50.206;9.998;2023-04-25T03:53:19;7.30;98.60
1351;DHT22;669;50.206;9.998;2023-04-25T03:55:47;7.40;98.60
1351;DHT22;669;50.206;9.998;2023-04-25T03:58:16;7.40;98.30
1351;DHT22;669;50.206;9.998;2023-04-25T04:00:44;7.30;98.60
1351;DHT22;669;50.206;9.998;2023-04-25T04:03:12;7.40;98.60
1351;DHT22;669;50.206;9.998;2023-04-25T04:05:40;7.40;98.60
1351;DHT22;669;50.206;9.998;2023-04-25T04:08:08;7.40;98.50
1351;DHT22;669;50.206;9.998;2023-04-25T04:10:36;7.30;98.30
1351;DHT22;669;50.206;9.998;2023-04-25T04:13:04;7.30;98.60
1351;DHT22;669;50.206;9.998;2023-04-25T04:15:33;7.30;98.30
1351;DHT22;669;50.206;9.998;2023-04-25T04:18:01;7.30;98.40
1351;DHT22;669;50.206;9.998;2023-04-25T04:20:30;7.20;98.10
1351;DHT22;669;50.206;9.998;2023-04-25T04:22:58;7.20;98.30
1351;DHT22;669;50.206;9.998;2023-04-25T04:25:26;7.20;98.50
1351;DHT22;669;50.206;9.998;2023-04-25T04:27:55;7.20;97.90
1351;DHT22;669;50.206;9.998;2023-04-25T04:30:23;7.20;98.20
1351;DHT22;669;50.206;9.998;2023-04-25T04:32:53;7.20;98.10
1351;DHT22;669;50.206;9.998;2023-04-25T04:35:22;7.20;98.10
1351;DHT22;669;50.206;9.998;2023-04-25T04:37:50;7.20;98.20
1351;DHT22;669;50.206;9.998;2023-04-25T04:40:18;7.20;98.10
1351;DHT22;669;50.206;9.998;2023-04-25T04:42:47;7.20;98.00
1351;DHT22;669;50.206;9.998;2023-04-25T04:45:16;7.20;98.20
1351;DHT22;669;50.206;9.998;2023-04-25T04:47:44;7.10;98.10
1351;DHT22;669;50.206;9.998;2023-04-25T04:50:14;7.10;98.00
1351;DHT22;669;50.206;9.998;2023-04-25T04:52:42;7.10;98.10
1351;DHT22;669;50.206;9.998;2023-04-25T04:55:10;7.10;98.10
1351;DHT22;669;50.206;9.998;2023-04-25T04:57:38;7.10;98.20
1351;DHT22;669;50.206;9.998;2023-04-25T05:00:07;7.10;98.30
1351;DHT22;669;50.206;9.998;2023-04-25T05:02:37;7.10;98.20
1351;DHT22;669;50.206;9.998;2023-04-25T05:05:06;7.10;97.60
1351;DHT22;669;50.206;9.998;2023-04-25T05:07:36;7.10;97.20
1351;DHT22;669;50.206;9.998;2023-04-25T05:10:05;7.10;96.90
1351;DHT22;669;50.206;9.998;2023-04-25T05:12:33;7.10;96.50
1351;DHT22;669;50.206;9.998;2023-04-25T05:15:03;7.20;95.70
1351;DHT22;669;50.206;9.998;2023-04-25T05:17:31;7.20;94.90
1351;DHT22;669;50.206;9.998;2023-04-25T05:19:59;7.30;95.40
1351;DHT22;669;50.206;9.998;2023-04-25T05:22:27;7.60;95.00
1351;DHT22;669;50.206;9.998;2023-04-25T05:24:56;7.70;94.30
1351;DHT22;669;50.206;9.998;2023-04-25T05:27:24;7.80;92.80
1351;DHT22;669;50.206;9.998;2023-04-25T05:29:52;7.90;92.50
1351;DHT22;669;50.206;9.998;2023-04-25T05:32:20;8.00;92.90
1351;DHT22;669;50.206;9.998;2023-04-25T05:34:48;8.20;91.60
1351;DHT22;669;50.206;9.998;2023-04-25T05:37:16;8.20;90.50
1351;DHT22;669;50.206;9.998;2023-04-25T05:39:44;8.20;90.70
1351;DHT22;669;50.206;9.998;2023-04-25T05:42:14;8.00;85.40
1351;DHT22;669;50.206;9.998;2023-04-25T05:44:42;7.90;89.80
1351;DHT22;669;50.206;9.998;2023-04-25T05:47:10;8.00;89.40
1351;DHT22;669;50.206;9.998;2023-04-25T05:49:37;8.10;85.00
1351;DHT22;669;50.206;9.998;2023-04-25T05:52:05;8.30;79.90
1351;DHT22;669;50.206;9.998;2023-04-25T05:54:33;8.70;83.30
1351;DHT22;669;50.206;9.998;2023-04-25T05:57:01;9.00;82.40
1351;DHT22;669;50.206;9.998;2023-04-25T05:59:31;9.30;78.50
1351;DHT22;669;50.206;9.998;2023-04-25T06:01:59;9.60;75.30
1351;DHT22;669;50.206;9.998;2023-04-25T06:04:27;10.00;72.60
1351;DHT22;669;50.206;9.998;2023-04-25T06:06:57;10.30;66.60
1351;DHT22;669;50.206;9.998;2023-04-25T06:09:25;10.40;69.60
1351;DHT22;669;50.206;9.998;2023-04-25T06:11:53;10.70;66.70
1351;DHT22;669;50.206;9.998;2023-04-25T06:14:21;10.80;64.30
1351;DHT22;669;50.206;9.998;2023-04-25T06:16:50;11.00;65.00
1351;DHT22;669;50.206;9.998;2023-04-25T06:19:18;11.50;62.30
1351;DHT22;669;50.206;9.998;2023-04-25T06:21:46;11.60;56.90
1351;DHT22;669;50.206;9.998;2023-04-25T06:24:14;11.70;59.00
1351;DHT22;669;50.206;9.998;2023-04-25T06:26:42;11.60;60.20
1351;DHT22;669;50.206;9.998;2023-04-25T06:29:10;11.90;58.10
1351;DHT22;669;50.206;9.998;2023-04-25T06:31:38;12.10;58.60
1351;DHT22;669;50.206;9.998;2023-04-25T06:34:07;12.10;55.80
1351;DHT22;669;50.206;9.998;2023-04-25T06:36:35;12.00;56.60
1351;DHT22;669;50.206;9.998;2023-04-25T06:39:03;12.00;55.60
1351;DHT22;669;50.206;9.998;2023-04-25T06:41:31;11.70;56.00
1351;DHT22;669;50.206;9.998;2023-04-25T06:43:59;11.40;55.40
1351;DHT22;669;50.206;9.998;2023-04-25T06:46:27;10.90;56.80
1351;DHT22;669;50.206;9.998;2023-04-25T06:48:55;10.60;58.30
1351;DHT22;669;50.206;9.998;2023-04-25T06:51:24;10.20;57.60
1351;DHT22;669;50.206;9.998;2023-04-25T06:53:55;9.80;62.80
1351;DHT22;669;50.206;9.998;2023-04-25T06:56:22;9.60;63.00
1351;DHT22;669;50.206;9.998;2023-04-25T06:58:50;9.50;62.80
1351;DHT22;669;50.206;9.998;2023-04-25T07:01:19;9.40;60.90
1351;DHT22;669;50.206;9.998;2023-04-25T07:03:47;9.40;67.00
1351;DHT22;669;50.206;9.998;2023-04-25T07:06:15;9.40;66.20
1351;DHT22;669;50.206;9.998;2023-04-25T07:08:44;9.30;63.30
1351;DHT22;669;50.206;9.998;2023-04-25T07:11:12;9.40;64.50
1351;DHT22;669;50.206;9.998;2023-04-25T07:13:40;9.50;63.20
1351;DHT22;669;50.206;9.998;2023-04-25T07:16:08;9.20;59.70
1351;DHT22;669;50.206;9.998;2023-04-25T07:18:36;9.10;60.40
1351;DHT22;669;50.206;9.998;2023-04-25T07:21:04;8.90;62.10
1351;DHT22;669;50.206;9.998;2023-04-25T07:23:32;8.90;61.30
1351;DHT22;669;50.206;9.998;2023-04-25T07:26:01;8.90;67.10
1351;DHT22;669;50.206;9.998;2023-04-25T07:28:29;9.00;67.00
1351;DHT22;669;50.206;9.998;2023-04-25T07:30:57;9.00;64.20
1351;DHT22;669;50.206;9.998;2023-04-25T07:33:24;9.10;63.60
1351;DHT22;669;50.206;9.998;2023-04-25T07:35:53;9.10;61.20
1351;DHT22;669;50.206;9.998;2023-04-25T07:38:21;9.10;62.40
1351;DHT22;669;50.206;9.998;2023-04-25T07:40:49;9.10;65.70
1351;DHT22;669;50.206;9.998;2023-04-25T07:43:18;9.20;64.30
1351;DHT22;669;50.206;9.998;2023-04-25T07:45:46;9.30;61.20
1351;DHT22;669;50.206;9.998;2023-04-25T07:48:16;9.10;60.40
1351;DHT22;669;50.206;9.998;2023-04-25T07:50:45;9.10;59.60
1351;DHT22;669;50.206;9.998;2023-04-25T07:53:12;9.20;59.70
1351;DHT22;669;50.206;9.998;2023-04-25T07:55:40;9.60;63.10
1351;DHT22;669;50.206;9.998;2023-04-25T07:58:09;9.80;58.10
1351;DHT22;669;50.206;9.998;2023-04-25T08:00:38;9.90;57.20
1351;DHT22;669;50.206;9.998;2023-04-25T08:03:06;9.80;55.40
1351;DHT22;669;50.206;9.998;2023-04-25T08:05:34;9.80;56.20
1351;DHT22;669;50.206;9.998;2023-04-25T08:08:02;9.60;55.30
1351;DHT22;669;50.206;9.998;2023-04-25T08:10:32;9.50;57.90
1351;DHT22;669;50.206;9.998;2023-04-25T08:13:00;9.60;60.00
1351;DHT22;669;50.206;9.998;2023-04-25T08:15:29;9.60;58.00
1351;DHT22;669;50.206;9.998;2023-04-25T08:17:58;9.60;57.40
1351;DHT22;669;50.206;9.998;2023-04-25T08:20:26;9.60;58.90
1351;DHT22;669;50.206;9.998;2023-04-25T08:22:54;9.60;58.90
1351;DHT22;669;50.206;9.998;2023-04-25T08:25:22;9.70;58.90
1351;DHT22;669;50.206;9.998;2023-04-25T08:27:50;9.70;57.60
1351;DHT22;669;50.206;9.998;2023-04-25T08:30:17;9.70;56.60
1351;DHT22;669;50.206;9.998;2023-04-25T08:32:45;9.60;57.00
1351;DHT22;669;50.206;9.998;2023-04-25T08:35:15;9.70;54.00
1351;DHT22;669;50.206;9.998;2023-04-25T08:37:44;9.80;54.30
1351;DHT22;669;50.206;9.998;2023-04-25T08:40:14;10.10;54.40
1351;DHT22;669;50.206;9.998;2023-04-25T08:42:43;10.30;52.40
1351;DHT22;669;50.206;9.998;2023-04-25T08:45:11;10.50;52.50
1351;DHT22;669;50.206;9.998;2023-04-25T08:47:39;10.60;53.40
1351;DHT22;669;50.206;9.998;2023-04-25T08:50:08;10.60;49.40
1351;DHT22;669;50.206;9.998;2023-04-25T08:52:41;10.60;52.40
1351;DHT22;669;50.206;9.998;2023-04-25T08:55:12;11.00;51.20
1351;DHT22;669;50.206;9.998;2023-04-25T08:57:41;11.50;47.10
1351;DHT22;669;50.206;9.998;2023-04-25T09:00:11;12.10;49.10
1351;DHT22;669;50.206;9.998;2023-04-25T09:02:39;13.00;50.10
1351;DHT22;669;50.206;9.998;2023-04-25T09:05:09;13.50;50.50
1351;DHT22;669;50.206;9.998;2023-04-25T09:07:39;13.70;42.00
1351;DHT22;669;50.206;9.998;2023-04-25T09:10:07;13.40;42.80
1351;DHT22;669;50.206;9.998;2023-04-25T09:12:35;13.10;43.70
1351;DHT22;669;50.206;9.998;2023-04-25T09:15:06;13.00;42.70
1351;DHT22;669;50.206;9.998;2023-04-25T09:17:34;12.80;42.40
1351;DHT22;669;50.206;9.998;2023-04-25T09:20:08;12.60;41.30
1351;DHT22;669;50.206;9.998;2023-04-25T09:22:36;12.20;39.20
1351;DHT22;669;50.206;9.998;2023-04-25T09:25:10;12.00;42.80
1351;DHT22;669;50.206;9.998;2023-04-25T09:27:49;12.10;43.60
1351;DHT22;669;50.206;9.998;2023-04-25T09:30:18;12.40;43.20
1351;DHT22;669;50.206;9.998;2023-04-25T09:32:46;12.70;41.20
1351;DHT22;669;50.206;9.998;2023-04-25T09:35:23;12.50;42.80
1351;DHT22;669;50.206;9.998;2023-04-25T09:37:52;12.30;40.10
1351;DHT22;669;50.206;9.998;2023-04-25T09:40:21;12.10;43.70
1351;DHT22;669;50.206;9.998;2023-04-25T09:42:49;11.80;47.30
1351;DHT22;669;50.206;9.998;2023-04-25T09:45:17;11.70;44.90
1351;DHT22;669;50.206;9.998;2023-04-25T09:47:45;11.60;45.70
1351;DHT22;669;50.206;9.998;2023-04-25T09:50:16;11.60;46.10
1351;DHT22;669;50.206;9.998;2023-04-25T09:52:45;11.40;42.20
1351;DHT22;669;50.206;9.998;2023-04-25T09:55:13;11.20;42.10
1351;DHT22;669;50.206;9.998;2023-04-25T09:57:46;11.10;44.00
1351;DHT22;669;50.206;9.998;2023-04-25T10:00:16;11.10;45.80
1351;DHT22;669;50.206;9.998;2023-04-25T10:02:47;11.00;44.60
1351;DHT22;669;50.206;9.998;2023-04-25T10:05:15;10.90;46.50
1351;DHT22;669;50.206;9.998;2023-04-25T10:07:44;10.90;44.20
1351;DHT22;669;50.206;9.998;2023-04-25T10:10:12;10.80;43.90
1351;DHT22;669;50.206;9.998;2023-04-25T10:12:41;10.80;44.40
1351;DHT22;669;50.206;9.998;2023-04-25T10:15:12;10.80;45.00
1351;DHT22;669;50.206;9.998;2023-04-25T10:17:41;10.90;45.60
1351;DHT22;669;50.206;9.998;2023-04-25T10:20:09;11.50;47.40
1351;DHT22;669;50.206;9.998;2023-04-25T10:22:41;12.40;44.70
1351;DHT22;669;50.206;9.998;2023-04-25T10:25:09;13.20;43.00
1351;DHT22;669;50.206;9.998;2023-04-25T10:27:38;13.90;40.90
1351;DHT22;669;50.206;9.998;2023-04-25T10:30:08;14.10;37.20
1351;DHT22;669;50.206;9.998;2023-04-25T10:32:39;14.00;37.70
1351;DHT22;669;50.206;9.998;2023-04-25T10:35:11;13.70;36.70
1351;DHT22;669;50.206;9.998;2023-04-25T10:37:56;13.50;37.00
1351;DHT22;669;50.206;9.998;2023-04-25T10:40:25;13.10;37.40
1351;DHT22;669;50.206;9.998;2023-04-25T10:42:53;12.60;38.50
1351;DHT22;669;50.206;9.998;2023-04-25T10:45:21;12.50;38.80
1351;DHT22;669;50.206;9.998;2023-04-25T10:47:51;12.20;40.10
1351;DHT22;669;50.206;9.998;2023-04-25T10:50:19;12.00;39.70
1351;DHT22;669;50.206;9.998;2023-04-25T10:52:46;11.70;43.30
1351;DHT22;669;50.206;9.998;2023-04-25T10:55:14;11.50;42.40
1351;DHT22;669;50.206;9.998;2023-04-25T10:57:44;11.40;42.80
1351;DHT22;669;50.206;9.998;2023-04-25T11:00:14;11.20;45.00
1351;DHT22;669;50.206;9.998;2023-04-25T11:02:45;11.20;45.00
1351;DHT22;669;50.206;9.998;2023-04-25T11:05:23;11.20;45.30
1351;DHT22;669;50.206;9.998;2023-04-25T11:07:54;11.10;44.70
1351;DHT22;669;50.206;9.998;2023-04-25T11:10:33;11.10;44.40
1351;DHT22;669;50.206;9.998;2023-04-25T11:13:02;11.10;45.00
1351;DHT22;669;50.206;9.998;2023-04-25T11:15:30;11.10;45.40
1351;DHT22;669;50.206;9.998;2023-04-25T11:17:58;11.10;46.20
1351;DHT22;669;50.206;9.998;2023-04-25T11:20:27;11.20;44.30
1351;DHT22;669;50.206;9.998;2023-04-25T11:22:58;11.00;43.40
1351;DHT22;669;50.206;9.998;2023-04-25T11:25:26;10.90;42.40
1351;DHT22;669;50.206;9.998;2023-04-25T11:27:56;10.90;44.20
1351;DHT22;669;50.206;9.998;2023-04-25T11:30:25;11.00;44.20
1351;DHT22;669;50.206;9.998;2023-04-25T11:32:55;10.80;43.40
1351;DHT22;669;50.206;9.998;2023-04-25T11:35:23;10.70;44.50
1351;DHT22;669;50.206;9.998;2023-04-25T11:37:53;10.50;46.80
1351;DHT22;669;50.206;9.998;2023-04-25T11:40:21;10.60;46.10
1351;DHT22;669;50.206;9.998;2023-04-25T11:42:49;10.60;45.60
1351;DHT22;669;50.206;9.998;2023-04-25T11:45:22;10.70;45.50
1351;DHT22;669;50.206;9.998;2023-04-25T11:47:51;10.80;44.90
1351;DHT22;669;50.206;9.998;2023-04-25T11:50:19;10.90;45.70
1351;DHT22;669;50.206;9.998;2023-04-25T11:52:48;10.90;43.30
1351;DHT22;669;50.206;9.998;2023-04-25T11:55:19;10.90;42.10
1351;DHT22;669;50.206;9.998;2023-04-25T11:57:49;10.90;43.00
1351;DHT22;669;50.206;9.998;2023-04-25T12:00:19;10.90;42.60
1351;DHT22;669;50.206;9.998;2023-04-25T12:02:51;10.90;41.90
1351;DHT22;669;50.206;9.998;2023-04-25T12:05:20;10.90;44.50
1351;DHT22;669;50.206;9.998;2023-04-25T12:07:54;10.90;43.40
1351;DHT22;669;50.206;9.998;2023-04-25T12:10:24;10.90;42.60
1351;DHT22;669;50.206;9.998;2023-04-25T12:12:53;10.90;42.70
1351;DHT22;669;50.206;9.998;2023-04-25T12:15:24;11.00;42.20
1351;DHT22;669;50.206;9.998;2023-04-25T12:17:53;11.00;43.80
1351;DHT22;669;50.206;9.998;2023-04-25T12:20:24;11.40;45.00
1351;DHT22;669;50.206;9.998;2023-04-25T12:22:52;11.90;43.90
1351;DHT22;669;50.206;9.998;2023-04-25T12:25:38;12.10;41.70
1351;DHT22;669;50.206;9.998;2023-04-25T12:28:14;12.00;41.30
1351;DHT22;669;50.206;9.998;2023-04-25T12:30:56;12.00;41.60
1351;DHT22;669;50.206;9.998;2023-04-25T12:33:25;11.90;40.00
1351;DHT22;669;50.206;9.998;2023-04-25T12:35:53;11.80;40.10
1351;DHT22;669;50.206;9.998;2023-04-25T12:38:23;11.70;42.00
1351;DHT22;669;50.206;9.998;2023-04-25T12:40:52;11.70;40.20
1351;DHT22;669;50.206;9.998;2023-04-25T12:43:20;11.80;37.80
1351;DHT22;669;50.206;9.998;2023-04-25T12:45:48;11.80;37.30
1351;DHT22;669;50.206;9.998;2023-04-25T12:48:17;12.20;36.90
1351;DHT22;669;50.206;9.998;2023-04-25T12:50:45;12.40;34.40
1351;DHT22;669;50.206;9.998;2023-04-25T12:53:15;12.40;34.80
1351;DHT22;669;50.206;9.998;2023-04-25T12:55:43;12.50;33.70
1351;DHT22;669;50.206;9.998;2023-04-25T12:58:14;12.40;35.70
1351;DHT22;669;50.206;9.998;2023-04-25T13:00:42;12.10;34.90
1351;DHT22;669;50.206;9.998;2023-04-25T13:03:10;12.00;34.80
1351;DHT22;669;50.206;9.998;2023-04-25T13:05:39;11.80;33.80
1351;DHT22;669;50.206;9.998;2023-04-25T13:08:07;11.80;35.60
1351;DHT22;669;50.206;9.998;2023-04-25T13:10:35;11.70;36.80
1351;DHT22;669;50.206;9.998;2023-04-25T13:13:05;11.60;35.00
1351;DHT22;669;50.206;9.998;2023-04-25T13:15:34;11.70;35.40
1351;DHT22;669;50.206;9.998;2023-04-25T13:18:03;11.70;36.20
1351;DHT22;669;50.206;9.998;2023-04-25T13:20:32;11.80;37.40
1351;DHT22;669;50.206;9.998;2023-04-25T13:23:00;12.00;33.70
1351;DHT22;669;50.206;9.998;2023-04-25T13:25:28;11.80;33.00
1351;DHT22;669;50.206;9.998;2023-04-25T13:27:56;11.80;34.20
1351;DHT22;669;50.206;9.998;2023-04-25T13:30:24;11.80;33.00
1351;DHT22;669;50.206;9.998;2023-04-25T13:32:54;11.80;33.30
1351;DHT22;669;50.206;9.998;2023-04-25T13:35:23;11.70;33.70
1351;DHT22;669;50.206;9.998;2023-04-25T13:37:51;11.70;33.60
1351;DHT22;669;50.206;9.998;2023-04-25T13:40:19;11.70;32.20
1351;DHT22;669;50.206;9.998;2023-04-25T13:42:50;11.70;33.50
1351;DHT22;669;50.206;9.998;2023-04-25T13:45:18;11.80;32.90
1351;DHT22;669;50.206;9.998;2023-04-25T13:47:47;11.80;33.00
1351;DHT22;669;50.206;9.998;2023-04-25T13:50:16;11.90;30.80
1351;DHT22;669;50.206;9.998;2023-04-25T13:52:44;11.90;32.20
1351;DHT22;669;50.206;9.998;2023-04-25T13:55:12;12.10;31.70
1351;DHT22;669;50.206;9.998;2023-04-25T13:57:40;12.20;31.00
1351;DHT22;669;50.206;9.998;2023-04-25T14:00:09;12.30;30.50
1351;DHT22;669;50.206;9.998;2023-04-25T14:02:38;12.30;31.40
1351;DHT22;669;50.206;9.998;2023-04-25T14:05:07;12.40;31.90
1351;DHT22;669;50.206;9.998;2023-04-25T14:07:37;12.30;31.00
1351;DHT22;669;50.206;9.998;2023-04-25T14:10:05;12.30;30.10
1351;DHT22;669;50.206;9.998;2023-04-25T14:12:34;12.10;30.40
1351;DHT22;669;50.206;9.998;2023-04-25T14:15:02;11.90;32.50
1351;DHT22;669;50.206;9.998;2023-04-25T14:17:30;11.90;34.30
1351;DHT22;669;50.206;9.998;2023-04-25T14:19:58;11.80;36.30
1351;DHT22;669;50.206;9.998;2023-04-25T14:22:26;11.80;36.50
1351;DHT22;669;50.206;9.998;2023-04-25T14:24:55;11.80;36.60
1351;DHT22;669;50.206;9.998;2023-04-25T14:27:24;11.90;35.80
1351;DHT22;669;50.206;9.998;2023-04-25T14:29:54;11.80;34.90
1351;DHT22;669;50.206;9.998;2023-04-25T14:32:22;11.80;34.60
1351;DHT22;669;50.206;9.998;2023-04-25T14:34:50;11.80;36.20
1351;DHT22;669;50.206;9.998;2023-04-25T14:37:18;11.80;36.80
1351;DHT22;669;50.206;9.998;2023-04-25T14:39:46;11.80;35.10
1351;DHT22;669;50.206;9.998;2023-04-25T14:42:15;11.70;35.80
1351;DHT22;669;50.206;9.998;2023-04-25T14:44:43;11.60;35.30
1351;DHT22;669;50.206;9.998;2023-04-25T14:47:11;11.50;37.40
1351;DHT22;669;50.206;9.998;2023-04-25T14:49:39;11.40;36.60
1351;DHT22;669;50.206;9.998;2023-04-25T14:52:07;11.30;36.80
1351;DHT22;669;50.206;9.998;2023-04-25T14:54:35;11.20;36.80
1351;DHT22;669;50.206;9.998;2023-04-25T14:57:03;11.10;33.70
1351;DHT22;669;50.206;9.998;2023-04-25T14:59:32;11.10;37.00
1351;DHT22;669;50.206;9.998;2023-04-25T15:02:00;11.10;33.30
1351;DHT22;669;50.206;9.998;2023-04-25T15:04:28;11.10;34.60
1351;DHT22;669;50.206;9.998;2023-04-25T15:06:57;11.20;33.30
1351;DHT22;669;50.206;9.998;2023-04-25T15:09:25;11.30;33.40
1351;DHT22;669;50.206;9.998;2023-04-25T15:11:55;11.30;35.60
1351;DHT22;669;50.206;9.998;2023-04-25T15:14:24;11.30;35.10
1351;DHT22;669;50.206;9.998;2023-04-25T15:16:53;11.40;35.40
1351;DHT22;669;50.206;9.998;2023-04-25T15:19:21;11.50;35.20
1351;DHT22;669;50.206;9.998;2023-04-25T15:21:49;11.60;35.00
1351;DHT22;669;50.206;9.998;2023-04-25T15:24:17;11.70;32.50
1351;DHT22;669;50.206;9.998;2023-04-25T15:26:45;11.70;36.40
1351;DHT22;669;50.206;9.998;2023-04-25T15:29:13;11.80;32.70
1351;DHT22;669;50.206;9.998;2023-04-25T15:31:41;11.60;35.80
1351;DHT22;669;50.206;9.998;2023-04-25T15:34:10;11.50;32.30
1351;DHT22;669;50.206;9.998;2023-04-25T15:36:38;11.50;32.60
1351;DHT22;669;50.206;9.998;2023-04-25T15:39:06;11.40;32.70
1351;DHT22;669;50.206;9.998;2023-04-25T15:41:35;11.30;32.00
1351;DHT22;669;50.206;9.998;2023-04-25T15:44:03;11.20;34.90
1351;DHT22;669;50.206;9.998;2023-04-25T15:46:31;11.20;31.90
1351;DHT22;669;50.206;9.998;2023-04-25T15:48:59;11.20;32.20
1351;DHT22;669;50.206;9.998;2023-04-25T15:51:28;11.10;31.50
1351;DHT22;669;50.206;9.998;2023-04-25T15:53:56;11.10;32.40
1351;DHT22;669;50.206;9.998;2023-04-25T15:56:24;11.10;32.90
1351;DHT22;669;50.206;9.998;2023-04-25T15:58:52;11.10;34.50
1351;DHT22;669;50.206;9.998;2023-04-25T16:01:21;11.10;33.10
1351;DHT22;669;50.206;9.998;2023-04-25T16:03:50;11.00;32.40
1351;DHT22;669;50.206;9.998;2023-04-25T16:06:19;10.90;32.30
1351;DHT22;669;50.206;9.998;2023-04-25T16:08:49;10.80;32.20
1351;DHT22;669;50.206;9.998;2023-04-25T16:11:18;10.70;31.80
1351;DHT22;669;50.206;9.998;2023-04-25T16:13:45;10.70;33.50
1351;DHT22;669;50.206;9.998;2023-04-25T16:16:14;10.70;32.90
1351;DHT22;669;50.206;9.998;2023-04-25T16:18:42;10.60;33.20
1351;DHT22;669;50.206;9.998;2023-04-25T16:21:10;10.50;32.80
1351;DHT22;669;50.206;9.998;2023-04-25T16:23:43;10.50;32.80
1351;DHT22;669;50.206;9.998;2023-04-25T16:26:12;10.50;34.20
1351;DHT22;669;50.206;9.998;2023-04-25T16:28:40;10.40;34.80
1351;DHT22;669;50.206;9.998;2023-04-25T16:31:08;10.40;35.40
1351;DHT22;669;50.206;9.998;2023-04-25T16:33:36;10.30;36.30
1351;DHT22;669;50.206;9.998;2023-04-25T16:36:04;10.30;36.50